Time;durP1;ratioP1;P1;durP2;ratioP2;P2;SDS_P1;SDS_P2;PMS_P1;PMS_P2;Temp;Humidity;BMP_temperature;BMP_pressure;BME280_temperature;BME280_humidity;BME280_pressure;Samples;Min_cycle;Max_cycle;Signal;HPM_P1;HPM_P2
2022/01/10 00:00:36;;;;;;;21.15;5.57;;;;;;;;;;6248640;22;20043;-94
2022/01/10 00:03:11;;;;;;;28.23;5.43;;;;;;;;;;6274275;22;20056;-93
2022/01/10 00:05:39;;;;;;;19.58;4.50;;;;;;;;;;6248641;22;20015;-92
2022/01/10 00:08:06;;;;;;;16.08;3.90;;;;;;;;;;6248469;22;20023;-94
2022/01/10 00:10:34;;;;;;;14.45;3.58;;;;;;;;;;6248540;22;20012;-94
2022/01/10 00:13:02;;;;;;;18.63;4.00;;;;;;;;;;6248533;22;20015;-94
2022/01/10 00:15:36;;;;;;;17.88;4.30;;;;;;;;;;6248602;22;20056;-94
2022/01/10 00:18:03;;;;;;;15.23;3.97;;;;;;;;;;6248638;22;20019;-94
2022/01/10 00:20:31;;;;;;;24.35;5.13;;;;;;;;;;6248699;22;20020;-93
2022/01/10 00:23:20;;;;;;;30.90;5.43;;;;;;;;;;6248524;22;20032;-95
2022/01/10 00:25:48;;;;;;;20.27;4.25;;;;;;;;;;6248625;22;20023;-94
2022/01/10 00:28:15;;;;;;;24.40;4.45;;;;;;;;;;6248119;22;20024;-94
2022/01/10 00:30:43;;;;;;;21.00;5.15;;;;;;;;;;6275521;22;20011;-94
2022/01/10 00:33:11;;;;;;;24.25;4.65;;;;;;;;;;6304073;22;20027;-94
2022/01/10 00:35:39;;;;;;;19.48;4.50;;;;;;;;;;6304082;22;20012;-93
2022/01/10 00:38:07;;;;;;;22.67;5.47;;;;;;;;;;6303971;22;20007;-94
2022/01/10 00:40:35;;;;;;;20.13;5.53;;;;;;;;;;6303933;22;20012;-94
2022/01/10 00:43:02;;;;;;;21.88;3.92;;;;;;;;;;6303825;22;20103;-94
2022/01/10 00:46:07;;;;;;;33.97;5.10;;;;;;;;;;6303895;22;20071;-94
2022/01/10 00:48:38;;;;;;;22.50;4.50;;;;;;;;;;6303737;22;20034;-94
2022/01/10 00:51:09;;;;;;;20.42;4.60;;;;;;;;;;6303899;22;20008;-95
2022/01/10 00:53:36;;;;;;;21.20;4.40;;;;;;;;;;6303852;22;20011;-93
2022/01/10 00:56:08;;;;;;;20.05;4.00;;;;;;;;;;6303720;22;20011;-93
2022/01/10 00:58:36;;;;;;;28.42;5.25;;;;;;;;;;6304089;22;20019;-94
2022/01/10 01:04:52;;;;;;;16.27;4.15;;;;;;;;;;6304657;22;20063;-93
2022/01/10 01:07:19;;;;;;;24.42;4.35;;;;;;;;;;6303736;22;20118;-94
2022/01/10 01:10:09;;;;;;;24.40;5.80;;;;;;;;;;6303419;22;20083;-94
2022/01/10 01:12:51;;;;;;;21.75;4.00;;;;;;;;;;6303450;22;20014;-94
2022/01/10 01:15:23;;;;;;;24.35;4.75;;;;;;;;;;6303833;22;20011;-93
2022/01/10 01:18:00;;;;;;;23.45;4.78;;;;;;;;;;6303440;22;20034;-94
2022/01/10 01:20:43;;;;;;;25.58;6.57;;;;;;;;;;6303507;22;20008;-93
2022/01/10 01:26:24;;;;;;;18.55;4.70;;;;;;;;;;6304293;22;20030;-95
2022/01/10 01:32:24;;;;;;;25.15;4.13;;;;;;;;;;6302901;22;20022;-93
2022/01/10 01:35:02;;;;;;;22.63;5.53;;;;;;;;;;6303249;22;20027;-94
2022/01/10 01:37:30;;;;;;;35.50;5.75;;;;;;;;;;6303325;22;20038;-94
2022/01/10 01:39:58;;;;;;;27.45;5.30;;;;;;;;;;6303641;22;20030;-95
2022/01/10 01:42:33;;;;;;;32.97;6.38;;;;;;;;;;6303433;22;20070;-94
2022/01/10 01:45:01;;;;;;;;;;;;;;;;;;6303861;22;20086;-95
2022/01/10 01:50:51;;;;;;;21.65;5.20;;;;;;;;;;6304449;22;20033;-94
2022/01/10 01:53:19;;;;;;;21.25;5.30;;;;;;;;;;6303410;22;20031;-94
2022/01/10 01:55:47;;;;;;;23.52;5.78;;;;;;;;;;6303368;22;20035;-94
2022/01/10 01:58:14;;;;;;;25.73;5.03;;;;;;;;;;6303389;22;20011;-94
2022/01/10 02:14:11;;;;;;;18.77;5.60;;;;;;;;;;6306070;22;20022;-93
2022/01/10 02:16:42;;;;;;;29.85;7.18;;;;;;;;;;6304869;22;20011;-95
2022/01/10 02:19:10;;;;;;;28.58;6.88;;;;;;;;;;6305116;22;20020;-93
2022/01/10 02:21:41;;;;;;;25.85;4.90;;;;;;;;;;6304909;22;20016;-93
2022/01/10 02:24:08;;;;;;;23.67;5.45;;;;;;;;;;6305281;22;20027;-93
2022/01/10 02:26:39;;;;;;;21.27;4.93;;;;;;;;;;6304995;22;20027;-93
2022/01/10 02:29:07;;;;;;;29.65;5.93;;;;;;;;;;6304969;22;20015;-93
2022/01/10 02:32:00;;;;;;;24.52;5.55;;;;;;;;;;6304349;22;20012;-93
2022/01/10 02:34:28;;;;;;;20.25;4.97;;;;;;;;;;6249556;22;20030;-93
2022/01/10 02:36:58;;;;;;;22.90;6.50;;;;;;;;;;6249077;22;20016;-93
2022/01/10 02:39:26;;;;;;;22.15;6.35;;;;;;;;;;6249243;22;20012;-93
2022/01/10 02:41:53;;;;;;;25.42;6.10;;;;;;;;;;6249264;22;20062;-95
2022/01/10 02:44:20;;;;;;;22.20;5.45;;;;;;;;;;6248940;22;20040;-93
2022/01/10 02:46:49;;;;;;;33.28;6.75;;;;;;;;;;6249241;22;20140;-93
2022/01/10 02:49:23;;;;;;;24.58;5.70;;;;;;;;;;6249211;22;20031;-93
2022/01/10 02:51:51;;;;;;;19.70;5.75;;;;;;;;;;6249479;22;20012;-94
2022/01/10 02:54:21;;;;;;;14.70;5.15;;;;;;;;;;6249267;22;20039;-93
2022/01/10 02:57:14;;;;;;;20.10;5.60;;;;;;;;;;6249001;22;20035;-94
2022/01/10 02:59:44;;;;;;;29.02;6.25;;;;;;;;;;6249978;22;20012;-93
2022/01/10 03:02:16;;;;;;;24.52;5.93;;;;;;;;;;6249263;22;20032;-94
2022/01/10 03:04:44;;;;;;;40.70;6.15;;;;;;;;;;6248974;22;20027;-94
2022/01/10 03:13:56;;;;;;;25.98;6.35;;;;;;;;;;6275134;22;19998;-95
2022/01/10 03:16:24;;;;;;;26.50;6.13;;;;;;;;;;6249300;22;20016;-95
2022/01/10 03:18:52;;;;;;;33.25;6.15;;;;;;;;;;6248960;22;20021;-95
2022/01/10 03:31:33;;;;;;;24.95;7.18;;;;;;;;;;6274677;22;20027;-95
2022/01/10 03:34:01;;;;;;;32.45;7.00;;;;;;;;;;6300430;22;20067;-94
2022/01/10 03:36:29;;;;;;;27.75;6.00;;;;;;;;;;6304748;22;20012;-94
2022/01/10 03:39:06;;;;;;;30.40;5.68;;;;;;;;;;6304696;22;20012;-95
2022/01/10 03:41:33;;;;;;;19.27;5.95;;;;;;;;;;6304924;22;20019;-96
2022/01/10 03:44:00;;;;;;;25.30;6.55;;;;;;;;;;6304810;22;20091;-94
2022/01/10 03:46:28;;;;;;;35.42;6.82;;;;;;;;;;6304791;22;20039;-94
2022/01/10 03:52:50;;;;;;;21.65;6.95;;;;;;;;;;6305727;22;20050;-95
2022/01/10 03:55:17;;;;;;;23.50;6.95;;;;;;;;;;6304362;22;20012;-95
2022/01/10 03:57:45;;;;;;;26.02;7.20;;;;;;;;;;6304448;22;20011;-94
2022/01/10 04:00:13;;;;;;;27.10;6.93;;;;;;;;;;6304423;22;20027;-95
2022/01/10 04:03:18;;;;;;;26.90;6.70;;;;;;;;;;6304720;22;20011;-95
2022/01/10 04:05:46;;;;;;;30.02;6.47;;;;;;;;;;6304627;22;20076;-94
2022/01/10 04:08:14;;;;;;;38.03;7.32;;;;;;;;;;6304524;22;20011;-93
2022/01/10 04:10:42;;;;;;;33.53;6.97;;;;;;;;;;6304548;22;20019;-95
2022/01/10 04:26:58;;;;;;;18.23;6.20;;;;;;;;;;6305305;22;20007;-95
2022/01/10 04:29:26;;;;;;;27.40;6.43;;;;;;;;;;6304126;22;20011;-95
2022/01/10 04:31:53;;;;;;;16.70;6.68;;;;;;;;;;6304049;22;20023;-95
2022/01/10 04:34:22;;;;;;;23.50;6.25;;;;;;;;;;6303883;22;20028;-93
2022/01/10 04:36:51;;;;;;;26.65;7.80;;;;;;;;;;6304022;22;20035;-92
2022/01/10 04:39:18;;;;;;;26.95;7.22;;;;;;;;;;6304041;22;20008;-93
2022/01/10 04:41:45;;;;;;;40.83;7.88;;;;;;;;;;6303896;22;20011;-94
2022/01/10 04:44:16;;;;;;;23.58;7.28;;;;;;;;;;6303866;22;20015;-92
2022/01/10 04:46:47;;;;;;;24.02;7.75;;;;;;;;;;6303797;22;20027;-93
2022/01/10 04:49:23;;;;;;;29.30;8.52;;;;;;;;;;6303697;22;20008;-93
2022/01/10 05:02:05;;;;;;;24.17;9.10;;;;;;;;;;6304542;22;20006;-94
2022/01/10 05:04:32;;;;;;;25.67;8.80;;;;;;;;;;6303807;22;20022;-94
2022/01/10 05:07:02;;;;;;;27.08;8.27;;;;;;;;;;6303682;22;20041;-94
2022/01/10 05:16:43;;;;;;;22.50;6.82;;;;;;;;;;6304358;22;20011;-94
2022/01/10 05:19:11;;;;;;;26.27;7.35;;;;;;;;;;6303547;22;20013;-94
2022/01/10 05:21:40;;;;;;;17.10;6.03;;;;;;;;;;6303519;22;20016;-94
2022/01/10 05:24:11;;;;;;;22.38;7.82;;;;;;;;;;6303407;22;20038;-93
2022/01/10 05:26:52;;;;;;;31.98;7.90;;;;;;;;;;6303862;22;20035;-93
2022/01/10 05:29:19;;;;;;;22.25;7.63;;;;;;;;;;6303685;22;20008;-92
2022/01/10 05:31:47;;;;;;;32.22;9.35;;;;;;;;;;6303315;22;20016;-93
2022/01/10 05:34:16;;;;;;;30.25;8.40;;;;;;;;;;6303464;22;20107;-94
2022/01/10 05:50:41;;;;;;;24.40;8.40;;;;;;;;;;6306520;22;20031;-95
2022/01/10 05:53:11;;;;;;;34.35;9.07;;;;;;;;;;6304725;22;20011;-94
2022/01/10 05:55:43;;;;;;;30.52;9.85;;;;;;;;;;6305505;22;20034;-94
2022/01/10 06:05:12;;;;;;;25.70;8.45;;;;;;;;;;6306432;22;20026;-94
2022/01/10 06:07:41;;;;;;;41.47;8.85;;;;;;;;;;6305217;22;20034;-95
2022/01/10 06:10:09;;;;;;;37.72;9.20;;;;;;;;;;6305224;22;20015;-94
2022/01/10 06:20:03;;;;;;;;;;;;;;;;;;;;;
2022/01/10 06:22:30;;;;;;;34.78;8.93;;;;;;;;;;6306064;22;20039;-94
2022/01/10 06:24:58;;;;;;;28.80;8.15;;;;;;;;;;6305198;22;20012;-95
2022/01/10 06:27:33;;;;;;;31.70;9.25;;;;;;;;;;6305549;22;20012;-94
2022/01/10 06:30:01;;;;;;;31.52;9.20;;;;;;;;;;6305294;22;20076;-94
2022/01/10 06:43:17;;;;;;;25.85;8.45;;;;;;;;;;6335029;22;19995;-94
2022/01/10 06:45:47;;;;;;;26.05;7.97;;;;;;;;;;6310256;22;20018;-94
2022/01/10 06:48:15;;;;;;;23.30;8.07;;;;;;;;;;6310086;22;20011;-94
2022/01/10 06:51:20;;;;;;;23.85;8.95;;;;;;;;;;6336743;22;20011;-95
2022/01/10 06:53:47;;;;;;;26.27;8.38;;;;;;;;;;6310211;22;20019;-94
2022/01/10 06:56:14;;;;;;;35.03;9.90;;;;;;;;;;6309366;22;20033;-94
2022/01/10 06:58:42;;;;;;;26.15;9.27;;;;;;;;;;6306089;22;20037;-94
2022/01/10 07:01:11;;;;;;;33.97;9.80;;;;;;;;;;6307200;22;20034;-93
2022/01/10 07:03:38;;;;;;;34.47;10.13;;;;;;;;;;6309955;22;20050;-94
2022/01/10 07:09:41;;;;;;;24.63;9.30;;;;;;;;;;6277446;22;20062;-93
2022/01/10 07:15:06;;;;;;;26.85;8.05;;;;;;;;;;6242057;23;20056;-94
2022/01/10 07:17:35;;;;;;;21.30;8.75;;;;;;;;;;6241589;22;20059;-94
2022/01/10 07:31:02;;;;;;;29.40;9.63;;;;;;;;;;6216017;22;20047;-93
2022/01/10 07:33:31;;;;;;;34.47;9.77;;;;;;;;;;6335877;22;20011;-93
2022/01/10 07:36:02;;;;;;;28.35;10.23;;;;;;;;;;6310230;22;20040;-93
2022/01/10 07:48:44;;;;;;;33.60;11.18;;;;;;;;;;6295113;22;20015;-94
2022/01/10 07:51:26;;;;;;;31.92;11.02;;;;;;;;;;6250399;22;20028;-94
2022/01/10 08:04:32;;;;;;;61.70;12.80;;;;;;;;;;6274736;22;20078;-95
2022/01/10 08:07:16;;;;;;;34.83;11.63;;;;;;;;;;6250564;22;20072;-95
2022/01/10 08:13:23;;;;;;;40.55;12.25;;;;;;;;;;6273311;22;20030;-94
2022/01/10 08:15:58;;;;;;;34.10;12.18;;;;;;;;;;6250142;22;20020;-94
2022/01/10 08:21:16;;;;;;;35.97;12.93;;;;;;;;;;6305221;22;20007;-95
2022/01/10 08:24:03;;;;;;;44.35;13.77;;;;;;;;;;6281354;22;20014;-94
2022/01/10 08:33:34;;;;;;;28.60;12.27;;;;;;;;;;6304498;22;20018;-94
2022/01/10 08:36:16;;;;;;;33.95;13.15;;;;;;;;;;6300695;22;20095;-93
